sensor_id;sensor_type;location;lat;lon;timestamp;P1;durP1;ratioP1;P2;durP2;ratioP2
27201;SDS011;14717;46.924;15.474;2023-05-23T00:02:18;9.90;;;6.10;;
27201;SDS011;14717;46.924;15.474;2023-05-23T00:07:09;9.13;;;6.45;;
27201;SDS011;14717;46.924;15.474;2023-05-23T00:12:00;11.90;;;6.72;;
27201;SDS011;14717;46.924;15.474;2023-05-23T00:16:51;10.98;;;6.10;;
27201;SDS011;14717;46.924;15.474;2023-05-23T00:21:42;9.80;;;6.32;;
27201;SDS011;14717;46.924;15.474;2023-05-23T00:24:08;10.55;;;6.18;;
27201;SDS011;14717;46.924;15.474;2023-05-23T00:26:34;15.25;;;6.40;;
27201;SDS011;14717;46.924;15.474;2023-05-23T00:29:00;10.95;;;6.72;;
27201;SDS011;14717;46.924;15.474;2023-05-23T00:31:26;10.30;;;6.47;;
27201;SDS011;14717;46.924;15.474;2023-05-23T00:36:17;10.63;;;6.47;;
27201;SDS011;14717;46.924;15.474;2023-05-23T00:41:09;11.82;;;6.10;;
27201;SDS011;14717;46.924;15.474;2023-05-23T00:46:00;11.13;;;5.97;;
27201;SDS011;14717;46.924;15.474;2023-05-23T00:48:26;12.80;;;6.60;;
27201;SDS011;14717;46.924;15.474;2023-05-23T00:50:53;9.45;;;6.90;;
27201;SDS011;14717;46.924;15.474;2023-05-23T00:53:19;12.50;;;6.30;;
27201;SDS011;14717;46.924;15.474;2023-05-23T00:55:46;10.73;;;6.72;;
27201;SDS011;14717;46.924;15.474;2023-05-23T01:00:39;10.75;;;6.60;;
27201;SDS011;14717;46.924;15.474;2023-05-23T01:03:05;9.75;;;6.40;;
27201;SDS011;14717;46.924;15.474;2023-05-23T01:07:56;11.77;;;6.43;;
27201;SDS011;14717;46.924;15.474;2023-05-23T01:18:23;10.82;;;6.75;;
27201;SDS011;14717;46.924;15.474;2023-05-23T01:20:52;11.27;;;7.00;;
27201;SDS011;14717;46.924;15.474;2023-05-23T01:23:26;10.13;;;6.05;;
27201;SDS011;14717;46.924;15.474;2023-05-23T01:28:50;8.85;;;5.53;;
27201;SDS011;14717;46.924;15.474;2023-05-23T01:31:21;10.60;;;6.35;;
27201;SDS011;14717;46.924;15.474;2023-05-23T01:33:51;10.43;;;6.22;;
27201;SDS011;14717;46.924;15.474;2023-05-23T01:36:19;11.93;;;6.45;;
27201;SDS011;14717;46.924;15.474;2023-05-23T01:38:46;8.32;;;6.07;;
27201;SDS011;14717;46.924;15.474;2023-05-23T01:43:37;9.82;;;5.95;;
27201;SDS011;14717;46.924;15.474;2023-05-23T01:48:30;12.55;;;6.18;;
27201;SDS011;14717;46.924;15.474;2023-05-23T01:50:56;11.02;;;6.82;;
27201;SDS011;14717;46.924;15.474;2023-05-23T01:53:22;11.15;;;5.78;;
27201;SDS011;14717;46.924;15.474;2023-05-23T01:55:50;10.80;;;6.50;;
27201;SDS011;14717;46.924;15.474;2023-05-23T01:58:16;10.32;;;6.60;;
27201;SDS011;14717;46.924;15.474;2023-05-23T02:03:07;10.52;;;5.93;;
27201;SDS011;14717;46.924;15.474;2023-05-23T02:07:58;8.73;;;5.90;;
27201;SDS011;14717;46.924;15.474;2023-05-23T02:12:49;12.68;;;6.68;;
27201;SDS011;14717;46.924;15.474;2023-05-23T02:17:41;12.13;;;6.75;;
27201;SDS011;14717;46.924;15.474;2023-05-23T02:22:32;11.23;;;6.55;;
27201;SDS011;14717;46.924;15.474;2023-05-23T02:27:23;10.80;;;6.80;;
27201;SDS011;14717;46.924;15.474;2023-05-23T02:32:14;10.10;;;7.13;;
27201;SDS011;14717;46.924;15.474;2023-05-23T02:37:04;10.20;;;6.37;;
27201;SDS011;14717;46.924;15.474;2023-05-23T02:41:55;11.23;;;6.70;;
27201;SDS011;14717;46.924;15.474;2023-05-23T02:44:20;10.65;;;6.95;;
27201;SDS011;14717;46.924;15.474;2023-05-23T02:49:11;11.27;;;6.18;;
27201;SDS011;14717;46.924;15.474;2023-05-23T02:54:02;10.10;;;6.10;;
27201;SDS011;14717;46.924;15.474;2023-05-23T02:58:53;14.33;;;6.67;;
27201;SDS011;14717;46.924;15.474;2023-05-23T03:03:44;11.52;;;6.82;;
27201;SDS011;14717;46.924;15.474;2023-05-23T03:08:38;10.82;;;6.50;;
27201;SDS011;14717;46.924;15.474;2023-05-23T03:11:05;12.38;;;6.63;;
27201;SDS011;14717;46.924;15.474;2023-05-23T03:15:56;12.57;;;7.15;;
27201;SDS011;14717;46.924;15.474;2023-05-23T03:20:46;10.13;;;6.77;;
27201;SDS011;14717;46.924;15.474;2023-05-23T03:23:12;11.23;;;6.85;;
27201;SDS011;14717;46.924;15.474;2023-05-23T03:28:03;10.67;;;6.33;;
27201;SDS011;14717;46.924;15.474;2023-05-23T03:30:28;11.63;;;7.05;;
27201;SDS011;14717;46.924;15.474;2023-05-23T03:32:53;10.68;;;6.63;;
27201;SDS011;14717;46.924;15.474;2023-05-23T03:35:19;10.13;;;6.50;;
27201;SDS011;14717;46.924;15.474;2023-05-23T03:40:10;9.37;;;6.23;;
27201;SDS011;14717;46.924;15.474;2023-05-23T03:42:37;10.68;;;6.18;;
27201;SDS011;14717;46.924;15.474;2023-05-23T03:45:03;11.10;;;6.50;;
27201;SDS011;14717;46.924;15.474;2023-05-23T03:49:54;11.57;;;6.80;;
27201;SDS011;14717;46.924;15.474;2023-05-23T03:54:45;8.97;;;6.10;;
27201;SDS011;14717;46.924;15.474;2023-05-23T03:57:10;11.95;;;6.78;;
27201;SDS011;14717;46.924;15.474;2023-05-23T03:59:36;10.48;;;6.45;;
27201;SDS011;14717;46.924;15.474;2023-05-23T04:04:26;11.17;;;6.47;;
27201;SDS011;14717;46.924;15.474;2023-05-23T04:06:53;11.90;;;7.15;;
27201;SDS011;14717;46.924;15.474;2023-05-23T04:09:18;12.38;;;6.50;;
27201;SDS011;14717;46.924;15.474;2023-05-23T04:11:43;10.55;;;6.53;;
27201;SDS011;14717;46.924;15.474;2023-05-23T04:14:09;13.45;;;6.55;;
27201;SDS011;14717;46.924;15.474;2023-05-23T04:16:35;10.98;;;7.25;;
27201;SDS011;14717;46.924;15.474;2023-05-23T04:19:02;10.70;;;7.07;;
27201;SDS011;14717;46.924;15.474;2023-05-23T04:21:28;12.75;;;7.30;;
27201;SDS011;14717;46.924;15.474;2023-05-23T04:23:55;11.15;;;7.13;;
27201;SDS011;14717;46.924;15.474;2023-05-23T04:28:45;10.88;;;7.32;;
27201;SDS011;14717;46.924;15.474;2023-05-23T04:31:12;12.82;;;7.72;;
27201;SDS011;14717;46.924;15.474;2023-05-23T04:36:04;13.70;;;7.68;;
27201;SDS011;14717;46.924;15.474;2023-05-23T04:38:33;17.88;;;7.13;;
27201;SDS011;14717;46.924;15.474;2023-05-23T04:43:24;14.82;;;7.78;;
27201;SDS011;14717;46.924;15.474;2023-05-23T04:45:51;15.75;;;8.10;;
27201;SDS011;14717;46.924;15.474;2023-05-23T04:48:20;14.15;;;7.15;;
27201;SDS011;14717;46.924;15.474;2023-05-23T04:50:48;10.57;;;7.10;;
27201;SDS011;14717;46.924;15.474;2023-05-23T04:53:15;12.93;;;7.43;;
27201;SDS011;14717;46.924;15.474;2023-05-23T04:58:06;12.77;;;7.80;;
27201;SDS011;14717;46.924;15.474;2023-05-23T05:00:32;11.27;;;7.15;;
27201;SDS011;14717;46.924;15.474;2023-05-23T05:05:22;10.77;;;7.30;;
27201;SDS011;14717;46.924;15.474;2023-05-23T05:07:48;11.85;;;7.50;;
27201;SDS011;14717;46.924;15.474;2023-05-23T05:12:44;10.77;;;7.10;;
27201;SDS011;14717;46.924;15.474;2023-05-23T05:15:11;10.43;;;7.25;;
27201;SDS011;14717;46.924;15.474;2023-05-23T05:17:37;12.98;;;7.43;;
27201;SDS011;14717;46.924;15.474;2023-05-23T05:22:33;11.75;;;7.50;;
27201;SDS011;14717;46.924;15.474;2023-05-23T05:24:59;11.00;;;6.80;;
27201;SDS011;14717;46.924;15.474;2023-05-23T05:27:25;13.85;;;7.43;;
27201;SDS011;14717;46.924;15.474;2023-05-23T05:32:17;10.95;;;7.47;;
27201;SDS011;14717;46.924;15.474;2023-05-23T05:37:08;11.02;;;7.05;;
27201;SDS011;14717;46.924;15.474;2023-05-23T05:39:33;10.70;;;7.28;;
27201;SDS011;14717;46.924;15.474;2023-05-23T05:44:27;13.30;;;6.72;;
27201;SDS011;14717;46.924;15.474;2023-05-23T05:49:18;14.30;;;7.30;;
27201;SDS011;14717;46.924;15.474;2023-05-23T05:54:09;13.03;;;7.80;;
27201;SDS011;14717;46.924;15.474;2023-05-23T05:59:00;13.80;;;7.50;;
27201;SDS011;14717;46.924;15.474;2023-05-23T06:01:25;12.60;;;7.25;;
27201;SDS011;14717;46.924;15.474;2023-05-23T06:03:51;13.05;;;7.05;;
27201;SDS011;14717;46.924;15.474;2023-05-23T06:06:16;12.98;;;7.28;;
27201;SDS011;14717;46.924;15.474;2023-05-23T06:08:42;28.13;;;8.88;;
27201;SDS011;14717;46.924;15.474;2023-05-23T06:13:33;12.83;;;7.37;;
27201;SDS011;14717;46.924;15.474;2023-05-23T06:15:58;10.95;;;6.90;;
27201;SDS011;14717;46.924;15.474;2023-05-23T06:18:24;14.88;;;7.85;;
27201;SDS011;14717;46.924;15.474;2023-05-23T06:23:14;10.88;;;7.10;;
27201;SDS011;14717;46.924;15.474;2023-05-23T06:25:40;13.40;;;7.35;;
27201;SDS011;14717;46.924;15.474;2023-05-23T06:28:05;15.60;;;7.32;;
27201;SDS011;14717;46.924;15.474;2023-05-23T06:30:31;14.80;;;7.43;;
27201;SDS011;14717;46.924;15.474;2023-05-23T06:32:57;13.32;;;7.20;;
27201;SDS011;14717;46.924;15.474;2023-05-23T06:35:22;10.35;;;6.70;;
27201;SDS011;14717;46.924;15.474;2023-05-23T06:37:48;12.43;;;7.72;;
27201;SDS011;14717;46.924;15.474;2023-05-23T06:40:13;11.27;;;7.07;;
27201;SDS011;14717;46.924;15.474;2023-05-23T06:42:39;11.20;;;6.80;;
27201;SDS011;14717;46.924;15.474;2023-05-23T06:45:05;11.70;;;6.50;;
27201;SDS011;14717;46.924;15.474;2023-05-23T06:47:30;11.20;;;7.00;;
27201;SDS011;14717;46.924;15.474;2023-05-23T06:49:56;11.80;;;7.10;;
27201;SDS011;14717;46.924;15.474;2023-05-23T06:52:21;10.52;;;6.57;;
27201;SDS011;14717;46.924;15.474;2023-05-23T06:54:47;13.00;;;6.82;;
27201;SDS011;14717;46.924;15.474;2023-05-23T06:57:12;10.70;;;6.38;;
27201;SDS011;14717;46.924;15.474;2023-05-23T06:59:37;10.95;;;5.95;;
27201;SDS011;14717;46.924;15.474;2023-05-23T07:02:03;11.25;;;6.90;;
27201;SDS011;14717;46.924;15.474;2023-05-23T07:04:28;8.95;;;6.15;;
27201;SDS011;14717;46.924;15.474;2023-05-23T07:06:54;11.55;;;6.22;;
27201;SDS011;14717;46.924;15.474;2023-05-23T07:09:19;9.60;;;5.63;;
27201;SDS011;14717;46.924;15.474;2023-05-23T07:11:44;9.57;;;5.97;;
27201;SDS011;14717;46.924;15.474;2023-05-23T07:14:10;9.65;;;6.35;;
27201;SDS011;14717;46.924;15.474;2023-05-23T07:16:35;12.65;;;6.13;;
27201;SDS011;14717;46.924;15.474;2023-05-23T07:19:00;10.10;;;5.55;;
27201;SDS011;14717;46.924;15.474;2023-05-23T07:21:27;12.88;;;5.70;;
27201;SDS011;14717;46.924;15.474;2023-05-23T07:23:52;8.07;;;5.18;;
27201;SDS011;14717;46.924;15.474;2023-05-23T07:26:17;8.25;;;5.63;;
27201;SDS011;14717;46.924;15.474;2023-05-23T07:28:43;8.20;;;5.55;;
27201;SDS011;14717;46.924;15.474;2023-05-23T07:31:08;7.00;;;5.15;;
27201;SDS011;14717;46.924;15.474;2023-05-23T07:33:34;10.07;;;5.80;;
27201;SDS011;14717;46.924;15.474;2023-05-23T07:35:59;12.38;;;5.72;;
27201;SDS011;14717;46.924;15.474;2023-05-23T07:38:27;11.15;;;5.75;;
27201;SDS011;14717;46.924;15.474;2023-05-23T07:40:53;11.70;;;6.15;;
27201;SDS011;14717;46.924;15.474;2023-05-23T07:43:18;8.20;;;5.72;;
27201;SDS011;14717;46.924;15.474;2023-05-23T07:45:44;15.68;;;6.15;;
27201;SDS011;14717;46.924;15.474;2023-05-23T07:48:09;10.80;;;5.85;;
27201;SDS011;14717;46.924;15.474;2023-05-23T07:50:36;9.50;;;6.20;;
27201;SDS011;14717;46.924;15.474;2023-05-23T07:53:03;9.93;;;5.95;;
27201;SDS011;14717;46.924;15.474;2023-05-23T07:55:29;8.70;;;5.60;;
27201;SDS011;14717;46.924;15.474;2023-05-23T07:57:54;8.95;;;5.20;;
27201;SDS011;14717;46.924;15.474;2023-05-23T08:00:20;8.40;;;5.03;;
27201;SDS011;14717;46.924;15.474;2023-05-23T08:02:45;6.82;;;4.68;;
27201;SDS011;14717;46.924;15.474;2023-05-23T08:05:12;9.27;;;5.28;;
27201;SDS011;14717;46.924;15.474;2023-05-23T08:07:37;9.23;;;5.75;;
27201;SDS011;14717;46.924;15.474;2023-05-23T08:10:02;7.82;;;4.95;;
27201;SDS011;14717;46.924;15.474;2023-05-23T08:12:28;8.82;;;5.55;;
27201;SDS011;14717;46.924;15.474;2023-05-23T08:14:54;6.72;;;4.88;;
27201;SDS011;14717;46.924;15.474;2023-05-23T08:17:19;8.68;;;5.45;;
27201;SDS011;14717;46.924;15.474;2023-05-23T08:19:44;10.73;;;5.32;;
27201;SDS011;14717;46.924;15.474;2023-05-23T08:22:10;9.25;;;5.70;;
27201;SDS011;14717;46.924;15.474;2023-05-23T08:24:36;10.90;;;5.32;;
27201;SDS011;14717;46.924;15.474;2023-05-23T08:27:01;8.73;;;5.30;;
27201;SDS011;14717;46.924;15.474;2023-05-23T08:29:27;8.32;;;5.07;;
27201;SDS011;14717;46.924;15.474;2023-05-23T08:31:52;10.55;;;5.60;;
27201;SDS011;14717;46.924;15.474;2023-05-23T08:34:17;10.63;;;5.40;;
27201;SDS011;14717;46.924;15.474;2023-05-23T08:36:43;8.95;;;5.70;;
27201;SDS011;14717;46.924;15.474;2023-05-23T08:39:08;8.35;;;5.60;;
27201;SDS011;14717;46.924;15.474;2023-05-23T08:41:34;10.35;;;6.22;;
27201;SDS011;14717;46.924;15.474;2023-05-23T08:43:59;10.35;;;5.80;;
27201;SDS011;14717;46.924;15.474;2023-05-23T08:46:25;9.65;;;5.80;;
27201;SDS011;14717;46.924;15.474;2023-05-23T08:48:54;12.88;;;6.30;;
27201;SDS011;14717;46.924;15.474;2023-05-23T08:51:20;12.73;;;6.10;;
27201;SDS011;14717;46.924;15.474;2023-05-23T08:53:47;10.82;;;5.80;;
27201;SDS011;14717;46.924;15.474;2023-05-23T08:56:12;12.32;;;5.97;;
27201;SDS011;14717;46.924;15.474;2023-05-23T08:58:39;8.23;;;5.82;;
27201;SDS011;14717;46.924;15.474;2023-05-23T09:01:09;8.43;;;5.57;;
27201;SDS011;14717;46.924;15.474;2023-05-23T09:03:35;8.77;;;5.00;;
27201;SDS011;14717;46.924;15.474;2023-05-23T09:06:06;8.45;;;5.28;;
27201;SDS011;14717;46.924;15.474;2023-05-23T09:08:32;8.95;;;5.47;;
27201;SDS011;14717;46.924;15.474;2023-05-23T09:10:58;8.45;;;5.10;;
27201;SDS011;14717;46.924;15.474;2023-05-23T09:13:27;8.25;;;5.40;;
27201;SDS011;14717;46.924;15.474;2023-05-23T09:29:05;7.40;;;4.35;;
27201;SDS011;14717;46.924;15.474;2023-05-23T09:31:31;8.30;;;4.80;;
27201;SDS011;14717;46.924;15.474;2023-05-23T09:33:57;9.90;;;4.93;;
27201;SDS011;14717;46.924;15.474;2023-05-23T09:36:25;7.32;;;5.28;;
27201;SDS011;14717;46.924;15.474;2023-05-23T09:38:53;7.15;;;4.88;;
27201;SDS011;14717;46.924;15.474;2023-05-23T09:41:19;7.88;;;4.97;;
27201;SDS011;14717;46.924;15.474;2023-05-23T09:43:51;6.40;;;4.65;;
27201;SDS011;14717;46.924;15.474;2023-05-23T09:46:18;6.57;;;4.75;;
27201;SDS011;14717;46.924;15.474;2023-05-23T09:48:46;10.82;;;4.97;;
27201;SDS011;14717;46.924;15.474;2023-05-23T09:51:12;9.00;;;5.10;;
27201;SDS011;14717;46.924;15.474;2023-05-23T09:53:37;6.95;;;5.28;;
27201;SDS011;14717;46.924;15.474;2023-05-23T09:56:03;9.45;;;5.20;;
27201;SDS011;14717;46.924;15.474;2023-05-23T09:58:29;7.35;;;4.78;;
27201;SDS011;14717;46.924;15.474;2023-05-23T10:00:55;7.38;;;4.63;;
27201;SDS011;14717;46.924;15.474;2023-05-23T10:03:23;7.57;;;4.35;;
27201;SDS011;14717;46.924;15.474;2023-05-23T10:06:09;7.57;;;5.03;;
27201;SDS011;14717;46.924;15.474;2023-05-23T10:08:45;8.40;;;4.70;;
27201;SDS011;14717;46.924;15.474;2023-05-23T10:14:00;5.78;;;4.00;;
27201;SDS011;14717;46.924;15.474;2023-05-23T10:19:35;5.78;;;3.92;;
27201;SDS011;14717;46.924;15.474;2023-05-23T10:22:03;5.85;;;4.38;;
27201;SDS011;14717;46.924;15.474;2023-05-23T10:24:32;6.43;;;4.20;;
27201;SDS011;14717;46.924;15.474;2023-05-23T10:26:58;5.75;;;3.90;;
27201;SDS011;14717;46.924;15.474;2023-05-23T10:29:24;8.73;;;4.68;;
27201;SDS011;14717;46.924;15.474;2023-05-23T10:31:51;7.22;;;4.50;;
27201;SDS011;14717;46.924;15.474;2023-05-23T10:34:21;8.40;;;4.78;;
27201;SDS011;14717;46.924;15.474;2023-05-23T10:37:03;10.18;;;5.05;;
27201;SDS011;14717;46.924;15.474;2023-05-23T10:42:16;9.68;;;4.85;;
27201;SDS011;14717;46.924;15.474;2023-05-23T10:45:17;8.48;;;5.63;;
27201;SDS011;14717;46.924;15.474;2023-05-23T10:47:45;8.35;;;5.38;;
27201;SDS011;14717;46.924;15.474;2023-05-23T10:50:13;9.15;;;4.68;;
27201;SDS011;14717;46.924;15.474;2023-05-23T10:52:40;6.28;;;4.68;;
27201;SDS011;14717;46.924;15.474;2023-05-23T10:55:13;10.48;;;4.95;;
27201;SDS011;14717;46.924;15.474;2023-05-23T10:57:41;6.65;;;4.55;;
27201;SDS011;14717;46.924;15.474;2023-05-23T11:00:14;6.78;;;4.57;;
27201;SDS011;14717;46.924;15.474;2023-05-23T11:02:52;9.30;;;4.68;;
27201;SDS011;14717;46.924;15.474;2023-05-23T11:05:22;5.72;;;4.57;;
27201;SDS011;14717;46.924;15.474;2023-05-23T11:13:20;5.35;;;4.00;;
27201;SDS011;14717;46.924;15.474;2023-05-23T11:15:47;8.13;;;4.95;;
27201;SDS011;14717;46.924;15.474;2023-05-23T11:18:20;9.00;;;4.88;;
27201;SDS011;14717;46.924;15.474;2023-05-23T11:20:48;8.85;;;4.57;;
27201;SDS011;14717;46.924;15.474;2023-05-23T11:23:15;7.05;;;4.28;;
27201;SDS011;14717;46.924;15.474;2023-05-23T11:25:41;5.85;;;4.25;;
27201;SDS011;14717;46.924;15.474;2023-05-23T11:28:11;6.10;;;4.55;;
27201;SDS011;14717;46.924;15.474;2023-05-23T11:30:37;7.85;;;4.32;;
27201;SDS011;14717;46.924;15.474;2023-05-23T11:33:07;8.35;;;4.32;;
27201;SDS011;14717;46.924;15.474;2023-05-23T11:35:41;6.35;;;4.10;;
27201;SDS011;14717;46.924;15.474;2023-05-23T11:38:07;5.90;;;4.63;;
27201;SDS011;14717;46.924;15.474;2023-05-23T11:40:34;6.13;;;4.30;;
27201;SDS011;14717;46.924;15.474;2023-05-23T11:43:04;7.07;;;4.43;;
27201;SDS011;14717;46.924;15.474;2023-05-23T11:45:31;8.40;;;4.28;;
27201;SDS011;14717;46.924;15.474;2023-05-23T11:47:57;5.75;;;3.83;;
27201;SDS011;14717;46.924;15.474;2023-05-23T11:50:22;9.23;;;3.97;;
27201;SDS011;14717;46.924;15.474;2023-05-23T11:52:49;8.15;;;4.45;;
27201;SDS011;14717;46.924;15.474;2023-05-23T11:55:20;12.10;;;4.30;;
27201;SDS011;14717;46.924;15.474;2023-05-23T11:57:47;8.68;;;3.90;;
27201;SDS011;14717;46.924;15.474;2023-05-23T12:00:13;9.40;;;4.10;;
27201;SDS011;14717;46.924;15.474;2023-05-23T12:02:40;6.18;;;3.70;;
27201;SDS011;14717;46.924;15.474;2023-05-23T12:05:07;6.85;;;4.32;;
27201;SDS011;14717;46.924;15.474;2023-05-23T12:07:34;8.70;;;4.43;;
27201;SDS011;14717;46.924;15.474;2023-05-23T12:10:01;11.52;;;4.38;;
27201;SDS011;14717;46.924;15.474;2023-05-23T12:12:27;10.02;;;4.80;;
27201;SDS011;14717;46.924;15.474;2023-05-23T12:14:54;6.65;;;4.70;;
27201;SDS011;14717;46.924;15.474;2023-05-23T12:17:21;7.15;;;4.40;;
27201;SDS011;14717;46.924;15.474;2023-05-23T12:19:46;7.32;;;4.45;;
27201;SDS011;14717;46.924;15.474;2023-05-23T12:22:12;7.43;;;3.78;;
27201;SDS011;14717;46.924;15.474;2023-05-23T12:24:43;6.38;;;3.70;;
27201;SDS011;14717;46.924;15.474;2023-05-23T12:27:10;8.02;;;3.60;;
27201;SDS011;14717;46.924;15.474;2023-05-23T12:29:36;11.18;;;5.15;;
27201;SDS011;14717;46.924;15.474;2023-05-23T12:32:03;7.32;;;2.85;;
27201;SDS011;14717;46.924;15.474;2023-05-23T12:34:30;6.30;;;2.72;;
27201;SDS011;14717;46.924;15.474;2023-05-23T12:36:56;4.35;;;2.80;;
27201;SDS011;14717;46.924;15.474;2023-05-23T12:39:26;4.88;;;2.95;;
27201;SDS011;14717;46.924;15.474;2023-05-23T12:41:52;4.13;;;2.85;;
27201;SDS011;14717;46.924;15.474;2023-05-23T12:44:20;8.63;;;3.10;;
27201;SDS011;14717;46.924;15.474;2023-05-23T12:46:46;7.55;;;3.17;;
27201;SDS011;14717;46.924;15.474;2023-05-23T12:49:12;7.30;;;3.00;;
27201;SDS011;14717;46.924;15.474;2023-05-23T12:51:37;8.48;;;3.35;;
27201;SDS011;14717;46.924;15.474;2023-05-23T12:54:04;7.90;;;2.95;;
27201;SDS011;14717;46.924;15.474;2023-05-23T12:56:29;6.97;;;3.00;;
27201;SDS011;14717;46.924;15.474;2023-05-23T12:58:55;7.70;;;3.03;;
27201;SDS011;14717;46.924;15.474;2023-05-23T13:01:21;6.45;;;3.10;;
27201;SDS011;14717;46.924;15.474;2023-05-23T13:03:46;9.35;;;3.58;;
27201;SDS011;14717;46.924;15.474;2023-05-23T13:06:11;9.63;;;3.40;;
27201;SDS011;14717;46.924;15.474;2023-05-23T13:08:37;7.75;;;3.47;;
27201;SDS011;14717;46.924;15.474;2023-05-23T13:11:02;8.38;;;3.50;;
27201;SDS011;14717;46.924;15.474;2023-05-23T13:13:29;7.35;;;3.47;;
27201;SDS011;14717;46.924;15.474;2023-05-23T13:15:56;5.65;;;3.20;;
27201;SDS011;14717;46.924;15.474;2023-05-23T13:18:21;7.53;;;3.65;;
27201;SDS011;14717;46.924;15.474;2023-05-23T13:20:47;8.27;;;2.95;;
27201;SDS011;14717;46.924;15.474;2023-05-23T13:23:12;9.60;;;3.75;;
27201;SDS011;14717;46.924;15.474;2023-05-23T13:25:38;6.20;;;3.42;;
27201;SDS011;14717;46.924;15.474;2023-05-23T13:28:03;6.07;;;3.65;;
27201;SDS011;14717;46.924;15.474;2023-05-23T13:30:30;7.00;;;3.53;;
27201;SDS011;14717;46.924;15.474;2023-05-23T13:32:55;8.27;;;4.00;;
27201;SDS011;14717;46.924;15.474;2023-05-23T13:35:20;7.00;;;3.75;;
27201;SDS011;14717;46.924;15.474;2023-05-23T13:37:46;11.80;;;5.05;;
27201;SDS011;14717;46.924;15.474;2023-05-23T13:40:14;10.57;;;4.93;;
27201;SDS011;14717;46.924;15.474;2023-05-23T13:42:45;9.80;;;5.63;;
27201;SDS011;14717;46.924;15.474;2023-05-23T13:45:12;11.23;;;5.20;;
27201;SDS011;14717;46.924;15.474;2023-05-23T13:47:37;10.13;;;4.90;;
27201;SDS011;14717;46.924;15.474;2023-05-23T13:50:03;9.70;;;4.88;;
27201;SDS011;14717;46.924;15.474;2023-05-23T13:52:29;8.55;;;4.72;;
27201;SDS011;14717;46.924;15.474;2023-05-23T13:54:55;8.43;;;4.80;;
27201;SDS011;14717;46.924;15.474;2023-05-23T13:57:20;9.50;;;4.60;;
27201;SDS011;14717;46.924;15.474;2023-05-23T13:59:46;10.00;;;4.80;;
27201;SDS011;14717;46.924;15.474;2023-05-23T14:02:11;8.38;;;4.80;;
27201;SDS011;14717;46.924;15.474;2023-05-23T14:04:36;9.88;;;4.55;;
27201;SDS011;14717;46.924;15.474;2023-05-23T14:07:02;8.48;;;4.38;;
27201;SDS011;14717;46.924;15.474;2023-05-23T14:09:28;8.20;;;5.13;;
27201;SDS011;14717;46.924;15.474;2023-05-23T14:11:53;9.95;;;4.07;;
27201;SDS011;14717;46.924;15.474;2023-05-23T14:14:18;12.57;;;4.90;;
27201;SDS011;14717;46.924;15.474;2023-05-23T14:16:44;9.55;;;3.95;;
27201;SDS011;14717;46.924;15.474;2023-05-23T14:19:09;9.65;;;4.20;;
27201;SDS011;14717;46.924;15.474;2023-05-23T14:21:35;9.57;;;4.72;;
27201;SDS011;14717;46.924;15.474;2023-05-23T14:24:00;9.90;;;4.50;;
27201;SDS011;14717;46.924;15.474;2023-05-23T14:26:26;10.38;;;4.13;;
27201;SDS011;14717;46.924;15.474;2023-05-23T14:28:51;7.88;;;4.00;;
27201;SDS011;14717;46.924;15.474;2023-05-23T14:31:17;6.78;;;4.00;;
27201;SDS011;14717;46.924;15.474;2023-05-23T14:33:42;7.90;;;4.35;;
27201;SDS011;14717;46.924;15.474;2023-05-23T14:36:08;8.35;;;4.10;;
27201;SDS011;14717;46.924;15.474;2023-05-23T14:38:33;11.05;;;4.10;;
27201;SDS011;14717;46.924;15.474;2023-05-23T14:40:58;11.13;;;4.28;;
27201;SDS011;14717;46.924;15.474;2023-05-23T14:43:24;8.90;;;4.50;;
27201;SDS011;14717;46.924;15.474;2023-05-23T14:45:49;13.15;;;5.75;;
27201;SDS011;14717;46.924;15.474;2023-05-23T14:48:15;10.80;;;5.82;;
27201;SDS011;14717;46.924;15.474;2023-05-23T14:50:41;8.52;;;5.30;;
27201;SDS011;14717;46.924;15.474;2023-05-23T14:53:06;11.63;;;5.43;;
27201;SDS011;14717;46.924;15.474;2023-05-23T14:55:31;11.52;;;5.53;;
27201;SDS011;14717;46.924;15.474;2023-05-23T14:57:57;11.75;;;5.20;;
27201;SDS011;14717;46.924;15.474;2023-05-23T15:00:23;8.68;;;5.10;;
27201;SDS011;14717;46.924;15.474;2023-05-23T15:02:48;10.98;;;4.82;;
27201;SDS011;14717;46.924;15.474;2023-05-23T15:05:14;8.77;;;5.18;;
27201;SDS011;14717;46.924;15.474;2023-05-23T15:07:39;9.45;;;4.88;;
27201;SDS011;14717;46.924;15.474;2023-05-23T15:10:05;8.13;;;5.28;;
27201;SDS011;14717;46.924;15.474;2023-05-23T15:12:32;8.48;;;5.13;;
27201;SDS011;14717;46.924;15.474;2023-05-23T15:14:57;12.40;;;5.18;;
27201;SDS011;14717;46.924;15.474;2023-05-23T15:17:33;9.15;;;5.25;;
27201;SDS011;14717;46.924;15.474;2023-05-23T15:19:59;11.85;;;5.07;;
27201;SDS011;14717;46.924;15.474;2023-05-23T15:22:25;9.50;;;5.10;;
27201;SDS011;14717;46.924;15.474;2023-05-23T15:24:50;10.43;;;6.22;;
27201;SDS011;14717;46.924;15.474;2023-05-23T15:27:16;13.02;;;6.35;;
27201;SDS011;14717;46.924;15.474;2023-05-23T15:29:43;11.18;;;6.18;;
27201;SDS011;14717;46.924;15.474;2023-05-23T15:32:09;8.85;;;6.05;;
27201;SDS011;14717;46.924;15.474;2023-05-23T15:34:35;9.60;;;6.28;;
27201;SDS011;14717;46.924;15.474;2023-05-23T15:37:00;9.35;;;5.90;;
27201;SDS011;14717;46.924;15.474;2023-05-23T15:39:25;11.40;;;6.25;;
27201;SDS011;14717;46.924;15.474;2023-05-23T15:41:51;12.75;;;7.22;;
27201;SDS011;14717;46.924;15.474;2023-05-23T15:44:17;10.10;;;6.00;;
27201;SDS011;14717;46.924;15.474;2023-05-23T15:46:45;10.38;;;5.93;;
27201;SDS011;14717;46.924;15.474;2023-05-23T15:49:14;14.27;;;7.03;;
27201;SDS011;14717;46.924;15.474;2023-05-23T15:51:40;9.15;;;6.20;;
27201;SDS011;14717;46.924;15.474;2023-05-23T15:54:06;11.02;;;6.68;;
27201;SDS011;14717;46.924;15.474;2023-05-23T15:56:31;16.08;;;6.53;;
27201;SDS011;14717;46.924;15.474;2023-05-23T15:58:58;16.65;;;6.78;;
27201;SDS011;14717;46.924;15.474;2023-05-23T16:01:25;13.63;;;6.63;;
27201;SDS011;14717;46.924;15.474;2023-05-23T16:03:51;13.88;;;7.07;;
27201;SDS011;14717;46.924;15.474;2023-05-23T16:06:16;12.68;;;6.43;;
27201;SDS011;14717;46.924;15.474;2023-05-23T16:08:43;10.43;;;6.63;;
27201;SDS011;14717;46.924;15.474;2023-05-23T16:11:09;10.75;;;6.30;;
27201;SDS011;14717;46.924;15.474;2023-05-23T16:13:37;10.75;;;6.07;;
27201;SDS011;14717;46.924;15.474;2023-05-23T16:16:04;10.80;;;5.97;;
27201;SDS011;14717;46.924;15.474;2023-05-23T16:18:29;11.68;;;6.93;;
27201;SDS011;14717;46.924;15.474;2023-05-23T16:20:57;8.93;;;6.15;;
27201;SDS011;14717;46.924;15.474;2023-05-23T16:23:23;10.98;;;6.50;;
27201;SDS011;14717;46.924;15.474;2023-05-23T16:25:49;10.52;;;5.90;;
27201;SDS011;14717;46.924;15.474;2023-05-23T16:28:18;11.13;;;7.28;;
27201;SDS011;14717;46.924;15.474;2023-05-23T16:30:44;9.90;;;6.35;;
27201;SDS011;14717;46.924;15.474;2023-05-23T16:33:10;12.73;;;6.82;;
27201;SDS011;14717;46.924;15.474;2023-05-23T16:35:35;8.60;;;5.85;;
27201;SDS011;14717;46.924;15.474;2023-05-23T16:38:01;8.68;;;5.70;;
27201;SDS011;14717;46.924;15.474;2023-05-23T16:40:26;11.35;;;5.72;;
27201;SDS011;14717;46.924;15.474;2023-05-23T16:42:52;9.73;;;6.00;;
27201;SDS011;14717;46.924;15.474;2023-05-23T16:45:17;14.20;;;7.00;;
27201;SDS011;14717;46.924;15.474;2023-05-23T16:47:43;11.77;;;6.07;;
27201;SDS011;14717;46.924;15.474;2023-05-23T16:50:08;9.57;;;5.88;;
27201;SDS011;14717;46.924;15.474;2023-05-23T16:52:34;11.13;;;6.07;;
27201;SDS011;14717;46.924;15.474;2023-05-23T16:55:00;14.60;;;6.50;;
27201;SDS011;14717;46.924;15.474;2023-05-23T16:57:25;12.35;;;5.93;;